Time;durP1;ratioP1;P1;durP2;ratioP2;P2;SDS_P1;SDS_P2;PMS_P1;PMS_P2;Temp;Humidity;BMP_temperature;BMP_pressure;BME280_temperature;BME280_humidity;BME280_pressure;Samples;Min_cycle;Max_cycle;Signal;HPM_P1;HPM_P2
2022/06/26 09:43:31;;;;;;;3.17;0.98;;;27.80;50.90;;;;;;2148990;27;20320;-63
2022/06/26 09:44:31;;;;;;;2.00;1.17;;;28.00;50.70;;;;;;2140003;27;20022;-61
2022/06/26 09:45:40;;;;;;;0.88;0.85;;;28.00;50.40;;;;;;2108076;27;20549;-62
2022/06/26 09:46:40;;;;;;;1.50;1.00;;;28.00;50.30;;;;;;2113315;28;90998;-62
2022/06/26 09:47:43;;;;;;;2.00;0.90;;;28.10;50.20;;;;;;2120743;28;20020;-63
2022/06/26 09:48:44;;;;;;;1.67;1.00;;;28.10;50.10;;;;;;2121334;28;20030;-62
2022/06/26 09:49:44;;;;;;;1.05;0.95;;;28.10;50.00;;;;;;2121205;28;20028;-61
2022/06/26 09:50:46;;;;;;;1.40;1.10;;;28.20;50.00;;;;;;2114450;28;20026;-62
2022/06/26 09:52:20;;;;;;;1.55;1.00;;;28.20;49.80;;;;;;2149032;27;20097;-68
2022/06/26 09:53:20;;;;;;;27.83;1.23;;;28.30;49.70;;;;;;2140007;27;20382;-70
2022/06/26 09:54:21;;;;;;;1.67;0.88;;;28.20;52.80;;;;;;2129225;27;20019;-69
2022/06/26 09:55:21;;;;;;;3.33;1.00;;;28.30;50.40;;;;;;2122188;28;20072;-69
2022/06/26 09:56:21;;;;;;;1.42;0.95;;;28.30;49.60;;;;;;2121979;28;20069;-68
2022/06/26 09:57:22;;;;;;;1.98;0.90;;;28.30;49.80;;;;;;2122227;28;20094;-69
2022/06/26 09:58:22;;;;;;;0.95;0.95;;;28.30;49.50;;;;;;2131311;27;20023;-71
2022/06/26 09:59:23;;;;;;;1.08;0.73;;;28.30;49.60;;;;;;2122060;28;20019;-70
2022/06/26 10:00:23;;;;;;;3.63;0.95;;;28.30;49.30;;;;;;2122073;28;20023;-71
2022/06/26 10:07:21;;;;;;;;;;;28.40;49.10;;;;;;2063278;28;81862;-65
2022/06/26 10:08:22;;;;;;;;;;;28.50;49.00;;;;;;2063161;28;89718;-63
2022/06/26 10:10:09;;;;;;;;;;;28.50;49.10;;;;;;2132415;27;89468;-63
2022/06/26 10:11:09;;;;;;;;;;;28.50;49.00;;;;;;2131076;27;1100;-65
2022/06/26 10:12:09;;;;;;;;;;;28.50;48.80;;;;;;2131020;27;1017;-64
2022/06/26 10:13:10;;;;;;;;;;;28.60;48.90;;;;;;2127265;27;10832;-63
2022/06/26 10:14:10;;;;;;;;;;;28.60;48.80;;;;;;2130948;27;832;-68
2022/06/26 10:15:11;;;;;;;;;;;28.50;48.60;;;;;;2130833;27;879;-68
2022/06/26 10:16:11;;;;;;;;;;;28.50;48.60;;;;;;2128658;27;81349;-63
2022/06/26 10:17:12;;;;;;;;;;;28.60;48.90;;;;;;2122245;27;932;-62
2022/06/26 10:18:12;;;;;;;;;;;28.60;48.90;;;;;;2118391;27;12370;-63
2022/06/26 10:27:56;;;;;;;;;;;28.80;51.70;;;;;;2107655;27;10114;-59
2022/06/26 10:28:56;;;;;;;;;;;28.10;49.90;;;;;;2138818;27;942;-60
2022/06/26 10:29:57;;;;;;;;;;;28.00;50.00;;;;;;2123175;27;911;-60
2022/06/26 10:30:57;;;;;;;;;;;28.00;51.50;;;;;;2113833;28;1314;-61
2022/06/26 10:31:57;;;;;;;;;;;28.00;50.20;;;;;;2111913;27;81524;-60
2022/06/26 10:32:58;;;;;;;;;;;28.00;50.40;;;;;;2113324;28;1102;-59
2022/06/26 10:33:58;;;;;;;;;;;27.90;50.40;;;;;;2110315;28;986;-60
2022/06/26 10:34:58;;;;;;;;;;;27.90;50.50;;;;;;2105307;28;1289;-59
2022/06/26 10:35:59;;;;;;;;;;;27.80;50.50;;;;;;2105346;28;1027;-59
2022/06/26 10:36:59;;;;;;;;;;;27.90;50.60;;;;;;2105148;28;991;-59
2022/06/26 10:38:00;;;;;;;;;;;27.80;50.70;;;;;;2105348;28;1184;-59
2022/06/26 10:39:00;;;;;;;;;;;27.80;50.70;;;;;;2105378;28;959;-59
2022/06/26 10:40:00;;;;;;;;;;;27.80;50.70;;;;;;2105247;28;1308;-60
2022/06/26 10:43:39;;;;;;;;;;;27.70;50.70;;;;;;2105813;28;754;-60
2022/06/26 10:44:39;;;;;;;;;;;27.80;50.70;;;;;;2113722;28;821;-60
2022/06/26 10:45:40;;;;;;;;;;;27.70;50.70;;;;;;2109045;28;959;-59
2022/06/26 10:46:40;;;;;;;;;;;27.80;50.70;;;;;;2105229;28;1015;-59
2022/06/26 10:47:41;;;;;;;;;;;27.80;50.80;;;;;;2105211;28;1983;-59
2022/06/26 10:48:41;;;;;;;;;;;27.80;50.70;;;;;;2105217;28;848;-60
2022/06/26 10:49:41;;;;;;;;;;;27.80;50.60;;;;;;2105293;28;1058;-59
2022/06/26 10:50:42;;;;;;;;;;;27.80;50.50;;;;;;2097741;27;85123;-59
2022/06/26 10:51:42;;;;;;;;;;;27.80;50.40;;;;;;2113558;28;904;-59
2022/06/26 10:52:43;;;;;;;;;;;27.80;50.40;;;;;;2113100;28;1035;-62
2022/06/26 10:53:43;;;;;;;;;;;27.80;50.50;;;;;;2113678;28;1177;-62
2022/06/26 10:54:43;;;;;;;;;;;27.70;50.50;;;;;;2113723;28;897;-62
2022/06/26 10:55:44;;;;;;;;;;;27.80;50.60;;;;;;2111005;27;77527;-62
2022/06/26 10:56:45;;;;;;;;;;;27.70;50.60;;;;;;2106780;28;1081;-62
2022/06/26 10:57:45;;;;;;;;;;;27.70;50.60;;;;;;2107018;28;860;-62
2022/06/26 10:58:46;;;;;;;;;;;27.70;50.60;;;;;;2106737;28;975;-62
2022/06/26 10:59:47;;;;;;;;;;;27.70;50.70;;;;;;2106771;28;789;-61
2022/06/26 11:00:47;;;;;;;;;;;27.70;50.60;;;;;;2106725;28;1262;-62
2022/06/26 11:01:47;;;;;;;;;;;27.70;50.60;;;;;;2106843;28;770;-64
2022/06/26 11:02:49;;;;;;;;;;;27.70;50.60;;;;;;2106713;28;1051;-61
2022/06/26 11:03:49;;;;;;;;;;;27.80;50.70;;;;;;2106828;28;844;-62
2022/06/26 11:04:50;;;;;;;;;;;27.80;50.80;;;;;;2106595;28;1182;-61
2022/06/26 11:05:51;;;;;;;;;;;27.80;50.60;;;;;;2106663;28;911;-63
2022/06/26 11:06:51;;;;;;;;;;;27.90;50.80;;;;;;2106806;28;982;-59
2022/06/26 11:07:53;;;;;;;;;;;27.90;50.60;;;;;;2106576;28;1902;-61
2022/06/26 11:08:54;;;;;;;;;;;28.00;50.80;;;;;;2106652;28;859;-64
2022/06/26 11:09:54;;;;;;;;;;;28.00;50.50;;;;;;2106738;28;781;-65
2022/06/26 11:10:55;;;;;;;;;;;28.00;51.00;;;;;;2106604;28;1352;-61
2022/06/26 11:11:55;;;;;;;;;;;28.00;50.50;;;;;;2106652;28;907;-62
2022/06/26 11:12:55;;;;;;;;;;;28.00;50.70;;;;;;2106747;28;1054;-60
2022/06/26 11:13:56;;;;;;;;;;;27.90;50.90;;;;;;2106806;28;848;-63
2022/06/26 11:14:56;;;;;;;;;;;27.90;51.00;;;;;;2106636;28;916;-63
2022/06/26 11:15:57;;;;;;;;;;;27.90;51.00;;;;;;2106658;28;907;-62
2022/06/26 11:16:57;;;;;;;;;;;27.90;50.80;;;;;;2106638;28;846;-61
2022/06/26 11:17:58;;;;;;;;;;;27.90;50.80;;;;;;2106751;28;820;-61
2022/06/26 11:18:58;;;;;;;;;;;27.90;50.60;;;;;;2122822;28;880;-61
2022/06/26 11:21:18;;;;;;;;;;;27.80;50.80;;;;;;2106681;28;616;-62
2022/06/26 11:22:18;;;;;;;;;;;27.80;50.70;;;;;;2106802;28;860;-61
2022/06/26 11:23:19;;;;;;;;;;;27.80;50.60;;;;;;2106731;28;892;-61
2022/06/26 11:24:19;;;;;;;;;;;27.80;50.60;;;;;;2106679;28;1032;-62
2022/06/26 11:25:21;;;;;;;;;;;27.80;50.60;;;;;;2106489;28;864;-62
2022/06/26 11:26:22;;;;;;;;;;;27.80;50.40;;;;;;2106690;28;856;-63
2022/06/26 11:27:22;;;;;;;;;;;27.80;50.40;;;;;;2106356;28;1940;-62
2022/06/26 11:28:22;;;;;;;;;;;27.80;50.40;;;;;;2122717;28;1218;-62
2022/06/26 11:29:23;;;;;;;;;;;27.80;50.40;;;;;;2122819;28;911;-62
2022/06/26 11:30:23;;;;;;;;;;;27.80;50.40;;;;;;2106531;28;1267;-63
2022/06/26 11:31:23;;;;;;;;;;;27.80;50.40;;;;;;2106511;28;934;-62
2022/06/26 11:32:24;;;;;;;;;;;27.80;50.20;;;;;;2106665;28;802;-62
2022/06/26 11:33:24;;;;;;;;;;;27.80;50.40;;;;;;2106541;28;916;-62
2022/06/26 11:34:24;;;;;;;;;;;27.80;50.20;;;;;;2106552;28;785;-62
2022/06/26 11:35:25;;;;;;;;;;;27.80;50.20;;;;;;2106651;28;920;-62
2022/06/26 11:36:25;;;;;;;;;;;27.80;50.20;;;;;;2106429;28;766;-62
2022/06/26 11:37:26;;;;;;;;;;;27.80;50.20;;;;;;2106598;28;1018;-62
2022/06/26 11:38:27;;;;;;;;;;;27.80;50.20;;;;;;2106445;28;760;-63
2022/06/26 11:39:27;;;;;;;;;;;27.90;50.20;;;;;;2100340;28;840;-63
2022/06/26 11:40:27;;;;;;;;;;;27.90;50.20;;;;;;2100728;28;1122;-63
2022/06/26 11:41:28;;;;;;;;;;;27.90;50.20;;;;;;2100858;28;761;-62
2022/06/26 11:42:28;;;;;;;;;;;27.90;50.20;;;;;;2100790;28;931;-62
2022/06/26 11:43:29;;;;;;;;;;;27.90;50.30;;;;;;2117091;28;1529;-62
2022/06/26 11:44:29;;;;;;;;;;;27.90;50.30;;;;;;2117039;28;1014;-62
2022/06/26 11:45:32;;;;;;;;;;;27.90;50.50;;;;;;2100850;28;995;-62
2022/06/26 11:46:32;;;;;;;;;;;27.90;50.50;;;;;;2100861;28;768;-62
2022/06/26 11:47:34;;;;;;;;;;;27.90;50.40;;;;;;2100700;28;1955;-62
2022/06/26 11:48:34;;;;;;;;;;;27.90;50.40;;;;;;2100738;28;863;-62
2022/06/26 11:49:35;;;;;;;;;;;27.90;50.70;;;;;;2100661;28;971;-61
2022/06/26 11:50:35;;;;;;;;;;;27.90;50.70;;;;;;2100747;28;1265;-62
2022/06/26 11:51:35;;;;;;;;;;;28.00;51.00;;;;;;2100807;28;907;-66
2022/06/26 11:52:36;;;;;;;;;;;28.00;50.90;;;;;;2101051;28;806;-64
2022/06/26 11:53:37;;;;;;;;;;;28.00;51.10;;;;;;2101870;28;963;-65
2022/06/26 11:54:38;;;;;;;;;;;28.00;51.00;;;;;;2101547;28;848;-67
2022/06/26 11:55:38;;;;;;;;;;;28.00;51.10;;;;;;2101338;28;794;-69
2022/06/26 11:56:38;;;;;;;;;;;28.00;51.10;;;;;;2101119;28;979;-64
2022/06/26 11:57:39;;;;;;;;;;;28.10;51.10;;;;;;2101339;28;1019;-65
2022/06/26 11:58:39;;;;;;;;;;;28.10;51.00;;;;;;2101230;28;869;-64
2022/06/26 11:59:39;;;;;;;;;;;28.10;51.00;;;;;;2101120;28;928;-63
2022/06/26 12:00:40;;;;;;;;;;;28.10;50.90;;;;;;2100610;28;1255;-63
2022/06/26 12:01:40;;;;;;;;;;;28.10;50.40;;;;;;2100750;28;785;-61
2022/06/26 12:02:41;;;;;;;;;;;28.10;50.50;;;;;;2100616;28;1035;-61
2022/06/26 12:03:41;;;;;;;;;;;28.10;50.40;;;;;;2100816;28;935;-61
2022/06/26 12:04:41;;;;;;;;;;;28.10;50.40;;;;;;2100778;28;857;-62
2022/06/26 12:05:42;;;;;;;;;;;28.10;50.50;;;;;;2100668;28;913;-61
2022/06/26 12:06:42;;;;;;;;;;;28.10;50.30;;;;;;2100556;28;821;-62
2022/06/26 12:07:42;;;;;;;;;;;28.10;50.20;;;;;;2100644;28;1905;-61
2022/06/26 12:08:43;;;;;;;;;;;28.00;50.20;;;;;;2100631;28;1027;-60
2022/06/26 12:09:43;;;;;;;;;;;28.00;50.30;;;;;;2100588;28;798;-61
2022/06/26 12:10:43;;;;;;;;;;;28.00;50.20;;;;;;2100592;28;1243;-60
2022/06/26 12:11:44;;;;;;;;;;;28.00;50.20;;;;;;2100518;28;1071;-60
2022/06/26 12:12:44;;;;;;;;;;;28.00;50.20;;;;;;2100557;28;781;-61
2022/06/26 12:13:45;;;;;;;;;;;28.00;50.20;;;;;;2100464;28;1015;-60
2022/06/26 12:14:45;;;;;;;;;;;28.00;50.10;;;;;;2100637;28;797;-61
2022/06/26 12:15:45;;;;;;;;;;;27.90;50.30;;;;;;2100544;28;983;-61
2022/06/26 12:16:46;;;;;;;;;;;27.90;50.20;;;;;;2100806;28;1004;-60
2022/06/26 12:17:46;;;;;;;;;;;27.90;50.20;;;;;;2100570;28;870;-60
2022/06/26 12:18:46;;;;;;;;;;;27.90;50.40;;;;;;2100567;28;1016;-61
2022/06/26 12:19:47;;;;;;;;;;;27.90;50.30;;;;;;2116798;28;1379;-61
2022/06/26 12:20:47;;;;;;;;;;;27.90;50.30;;;;;;2116786;28;1255;-60
2022/06/26 12:21:48;;;;;;;;;;;27.90;50.30;;;;;;2100633;28;947;-60
2022/06/26 12:22:48;;;;;;;;;;;27.90;50.30;;;;;;2100618;28;809;-60
2022/06/26 12:23:48;;;;;;;;;;;27.90;50.30;;;;;;2100764;28;859;-60
2022/06/26 12:24:49;;;;;;;;;;;27.90;50.40;;;;;;2100492;28;940;-60
2022/06/26 12:25:50;;;;;;;;;;;27.90;50.50;;;;;;2100467;28;810;-60
2022/06/26 12:26:50;;;;;;;;;;;27.90;50.50;;;;;;2100570;28;789;-61
2022/06/26 12:27:51;;;;;;;;;;;27.90;50.50;;;;;;2100584;28;1975;-60
2022/06/26 12:28:51;;;;;;;;;;;27.90;50.50;;;;;;2100447;28;948;-60
2022/06/26 12:29:52;;;;;;;;;;;27.90;50.60;;;;;;2100479;28;839;-61
2022/06/26 12:30:52;;;;;;;;;;;27.90;50.50;;;;;;2100401;28;1185;-60
2022/06/26 12:31:53;;;;;;;;;;;27.80;50.60;;;;;;2100460;28;887;-60
2022/06/26 12:32:53;;;;;;;;;;;27.80;50.70;;;;;;2100567;28;856;-61
2022/06/26 12:33:53;;;;;;;;;;;27.80;50.70;;;;;;2100461;28;976;-61
2022/06/26 12:34:54;;;;;;;;;;;27.80;50.70;;;;;;2100470;28;920;-60
2022/06/26 12:35:54;;;;;;;;;;;27.80;50.70;;;;;;2100561;28;1019;-60
2022/06/26 12:36:54;;;;;;;;;;;27.80;50.70;;;;;;2100337;28;1015;-61
2022/06/26 12:37:55;;;;;;;;;;;27.80;50.80;;;;;;2100501;28;757;-61
2022/06/26 12:38:55;;;;;;;;;;;27.80;50.90;;;;;;2100528;28;856;-61
2022/06/26 12:39:56;;;;;;;;;;;27.80;50.70;;;;;;2100303;28;829;-61
2022/06/26 12:40:56;;;;;;;;;;;27.80;50.70;;;;;;2100246;28;1333;-61
2022/06/26 12:41:57;;;;;;;;;;;27.80;50.60;;;;;;2100346;28;852;-61
2022/06/26 12:42:57;;;;;;;;;;;27.80;50.50;;;;;;2100394;28;819;-61
2022/06/26 12:43:57;;;;;;;;;;;27.80;50.60;;;;;;2100360;28;1071;-61
2022/06/26 12:44:58;;;;;;;;;;;27.80;50.50;;;;;;2116489;28;880;-61
2022/06/26 12:45:58;;;;;;;;;;;27.80;50.60;;;;;;2116529;28;1010;-61
2022/06/26 12:46:58;;;;;;;;;;;27.80;50.60;;;;;;2099574;28;1959;-61
2022/06/26 12:47:59;;;;;;;;;;;27.80;50.60;;;;;;2099685;28;847;-61
2022/06/26 12:48:59;;;;;;;;;;;27.80;50.50;;;;;;2100403;28;939;-61
2022/06/26 12:50:00;;;;;;;;;;;27.80;50.60;;;;;;2100177;28;1262;-60
2022/06/26 12:51:00;;;;;;;;;;;27.80;50.60;;;;;;2099239;28;923;-61
2022/06/26 12:52:00;;;;;;;;;;;27.80;50.50;;;;;;2100231;28;900;-61
2022/06/26 12:53:01;;;;;;;;;;;27.80;50.40;;;;;;2100291;28;844;-61
2022/06/26 12:54:01;;;;;;;;;;;27.80;50.50;;;;;;2100216;28;1000;-61
2022/06/26 12:55:01;;;;;;;;;;;27.80;50.50;;;;;;2100298;28;854;-61
2022/06/26 12:56:02;;;;;;;;;;;27.80;50.40;;;;;;2100268;28;908;-60
2022/06/26 12:57:02;;;;;;;;;;;27.80;50.40;;;;;;2100196;28;817;-61
2022/06/26 12:58:03;;;;;;;;;;;27.80;50.40;;;;;;2100285;28;1015;-61
2022/06/26 12:59:03;;;;;;;;;;;27.80;50.50;;;;;;2100355;28;848;-61
2022/06/26 13:00:03;;;;;;;;;;;27.80;50.50;;;;;;2100080;28;1262;-61
2022/06/26 13:01:04;;;;;;;;;;;27.80;50.40;;;;;;2100115;28;1003;-61
2022/06/26 13:02:04;;;;;;;;;;;27.90;50.50;;;;;;2100259;28;840;-60
2022/06/26 13:03:04;;;;;;;;;;;27.80;50.50;;;;;;2100124;28;856;-60
2022/06/26 13:04:05;;;;;;;;;;;27.80;50.40;;;;;;2100160;28;947;-61
2022/06/26 13:05:05;;;;;;;;;;;27.80;50.50;;;;;;2100178;28;825;-60
2022/06/26 13:06:06;;;;;;;;;;;27.80;50.50;;;;;;2100052;28;869;-61
2022/06/26 13:07:06;;;;;;;;;;;27.90;50.50;;;;;;2100070;28;1963;-61
2022/06/26 13:08:06;;;;;;;;;;;27.90;50.50;;;;;;2100045;28;846;-60
2022/06/26 13:09:07;;;;;;;;;;;27.90;50.40;;;;;;2100087;28;1014;-61
2022/06/26 13:10:07;;;;;;;;;;;27.90;50.60;;;;;;2100021;28;1156;-62
2022/06/26 13:11:23;;;;;;;;;;;27.90;50.40;;;;;;2100031;28;834;-61
2022/06/26 13:12:23;;;;;;;;;;;27.90;50.40;;;;;;2100336;28;833;-61
2022/06/26 13:13:23;;;;;;;;;;;27.80;50.40;;;;;;2100392;28;802;-61
2022/06/26 13:14:24;;;;;;;;;;;27.90;50.40;;;;;;2100254;28;928;-62
2022/06/26 13:15:24;;;;;;;;;;;27.80;50.60;;;;;;2100061;28;987;-61
2022/06/26 13:16:24;;;;;;;;;;;27.80;50.50;;;;;;2100096;28;891;-61
2022/06/26 13:17:25;;;;;;;;;;;27.80;50.40;;;;;;2100006;28;785;-61
2022/06/26 13:18:25;;;;;;;;;;;27.80;50.40;;;;;;2099998;28;833;-62
2022/06/26 13:19:26;;;;;;;;;;;27.90;50.30;;;;;;2116142;28;912;-61
2022/06/26 13:20:26;;;;;;;;;;;27.80;50.30;;;;;;2116217;28;1247;-61
2022/06/26 13:21:26;;;;;;;;;;;27.80;50.30;;;;;;2099450;28;1132;-62
2022/06/26 13:22:28;;;;;;;;;;;27.90;50.40;;;;;;2099435;28;847;-61
2022/06/26 13:23:28;;;;;;;;;;;27.90;50.30;;;;;;2100028;28;829;-61
2022/06/26 13:24:29;;;;;;;;;;;27.90;50.30;;;;;;2100014;28;1023;-60
2022/06/26 13:25:29;;;;;;;;;;;27.90;50.50;;;;;;2100050;28;854;-61
2022/06/26 13:26:29;;;;;;;;;;;27.90;50.30;;;;;;2100029;28;916;-60
2022/06/26 13:27:30;;;;;;;;;;;27.90;50.20;;;;;;2099750;28;1910;-61
2022/06/26 13:28:30;;;;;;;;;;;27.90;50.20;;;;;;2100157;28;918;-60
2022/06/26 13:29:31;;;;;;;;;;;27.90;50.30;;;;;;2099924;28;964;-60
2022/06/26 13:30:31;;;;;;;;;;;27.90;50.20;;;;;;2099862;28;1267;-61
2022/06/26 13:31:31;;;;;;;;;;;27.90;50.30;;;;;;2099867;28;806;-60
2022/06/26 13:32:32;;;;;;;;;;;27.90;50.30;;;;;;2100217;28;922;-60
2022/06/26 13:33:32;;;;;;;;;;;27.90;50.20;;;;;;2099842;28;943;-60
2022/06/26 13:34:32;;;;;;;;;;;27.90;50.20;;;;;;2100085;28;964;-60
2022/06/26 13:35:33;;;;;;;;;;;27.90;50.20;;;;;;2100118;28;838;-61
2022/06/26 13:36:33;;;;;;;;;;;27.90;50.20;;;;;;2099962;28;897;-61
2022/06/26 13:37:34;;;;;;;;;;;27.90;50.20;;;;;;2100052;28;934;-60
2022/06/26 13:38:34;;;;;;;;;;;27.90;50.20;;;;;;2100123;28;1011;-61
2022/06/26 13:39:34;;;;;;;;;;;27.90;50.20;;;;;;2099866;28;790;-61
2022/06/26 13:40:35;;;;;;;;;;;27.90;50.20;;;;;;2099773;28;1271;-60
2022/06/26 13:41:35;;;;;;;;;;;27.90;50.20;;;;;;2099829;28;1014;-61
2022/06/26 13:42:36;;;;;;;;;;;28.00;50.20;;;;;;2099955;28;889;-61
2022/06/26 13:43:36;;;;;;;;;;;28.00;50.20;;;;;;2099801;28;892;-61
2022/06/26 13:44:36;;;;;;;;;;;28.00;50.20;;;;;;2099868;28;1055;-61
2022/06/26 13:45:37;;;;;;;;;;;28.00;50.20;;;;;;2099836;28;869;-61
2022/06/26 13:46:37;;;;;;;;;;;28.00;50.20;;;;;;2099877;28;892;-61
2022/06/26 13:47:41;;;;;;;;;;;28.00;50.20;;;;;;2099770;28;1898;-62
2022/06/26 13:48:42;;;;;;;;;;;28.00;50.20;;;;;;2099828;28;829;-61
2022/06/26 13:49:45;;;;;;;;;;;28.00;50.20;;;;;;2099929;28;1015;-61
2022/06/26 13:50:45;;;;;;;;;;;28.00;50.30;;;;;;2099744;28;1165;-61
2022/06/26 13:51:45;;;;;;;;;;;28.00;50.20;;;;;;2099869;28;853;-61
2022/06/26 13:52:46;;;;;;;;;;;28.00;50.20;;;;;;2099753;28;851;-60
2022/06/26 13:53:46;;;;;;;;;;;28.00;50.20;;;;;;2099653;28;1019;-61
2022/06/26 13:54:46;;;;;;;;;;;28.00;50.20;;;;;;2099763;28;848;-61
2022/06/26 13:55:50;;;;;;;;;;;28.00;50.20;;;;;;2099733;28;999;-61
2022/06/26 13:56:50;;;;;;;;;;;28.00;50.10;;;;;;2099794;28;916;-61
2022/06/26 13:57:50;;;;;;;;;;;28.00;50.10;;;;;;2099747;28;861;-61
2022/06/26 13:58:51;;;;;;;;;;;27.90;50.10;;;;;;2099712;28;1020;-61
2022/06/26 13:59:51;;;;;;;;;;;28.00;50.10;;;;;;2099682;28;872;-61
2022/06/26 14:00:51;;;;;;;;;;;28.00;50.10;;;;;;2099720;28;1375;-61
2022/06/26 14:01:52;;;;;;;;;;;27.90;50.10;;;;;;2099571;28;845;-61
2022/06/26 14:02:52;;;;;;;;;;;27.90;50.00;;;;;;2099801;28;956;-61
2022/06/26 14:03:53;;;;;;;;;;;27.90;50.10;;;;;;2099731;28;793;-61
2022/06/26 14:04:53;;;;;;;;;;;27.90;50.10;;;;;;2099691;28;829;-61
2022/06/26 14:05:54;;;;;;;;;;;27.90;50.00;;;;;;2099725;28;888;-61
2022/06/26 14:06:55;;;;;;;;;;;27.90;50.00;;;;;;2099707;28;879;-61
2022/06/26 14:07:55;;;;;;;;;;;27.90;50.00;;;;;;2099733;28;1957;-61
2022/06/26 14:08:56;;;;;;;;;;;27.90;50.00;;;;;;2115696;28;1123;-61
2022/06/26 14:09:56;;;;;;;;;;;27.90;50.00;;;;;;2115937;28;966;-61
2022/06/26 14:10:57;;;;;;;;;;;27.90;50.00;;;;;;2099677;28;1342;-61
2022/06/26 14:11:57;;;;;;;;;;;27.90;49.90;;;;;;2099750;28;919;-61
2022/06/26 14:12:58;;;;;;;;;;;27.90;49.90;;;;;;2099602;28;817;-61
2022/06/26 14:13:58;;;;;;;;;;;27.90;49.90;;;;;;2099681;28;770;-61
2022/06/26 14:14:58;;;;;;;;;;;27.90;49.90;;;;;;2115772;28;881;-61
2022/06/26 14:15:59;;;;;;;;;;;27.90;49.90;;;;;;2115831;28;927;-61
2022/06/26 14:16:59;;;;;;;;;;;27.90;49.90;;;;;;2099705;28;856;-61
2022/06/26 14:17:59;;;;;;;;;;;27.90;50.00;;;;;;2099806;28;932;-61
2022/06/26 14:19:00;;;;;;;;;;;27.90;49.90;;;;;;2099726;28;843;-60
2022/06/26 14:20:00;;;;;;;;;;;27.90;49.80;;;;;;2099663;28;1247;-61
2022/06/26 14:21:01;;;;;;;;;;;27.90;49.80;;;;;;2099571;28;1068;-61
2022/06/26 14:25:59;;;;;;;;;;;27.90;49.80;;;;;;2099775;28;652;-61
2022/06/26 14:26:59;;;;;;;;;;;27.90;49.80;;;;;;2099521;28;1066;-61
2022/06/26 14:28:00;;;;;;;;;;;27.90;49.80;;;;;;2099472;28;1909;-60
2022/06/26 14:29:00;;;;;;;;;;;27.90;49.90;;;;;;2099559;28;790;-61
2022/06/26 14:30:00;;;;;;;;;;;27.90;49.80;;;;;;2099762;28;1252;-60
2022/06/26 14:31:01;;;;;;;;;;;27.90;49.90;;;;;;2099590;28;1019;-61
2022/06/26 14:32:01;;;;;;;;;;;27.90;49.80;;;;;;2099567;28;790;-61
2022/06/26 14:33:02;;;;;;;;;;;27.90;49.80;;;;;;2115633;28;1165;-60
2022/06/26 14:34:03;;;;;;;;;;;27.90;49.80;;;;;;2115744;28;947;-61
2022/06/26 14:35:03;;;;;;;;;;;27.90;49.80;;;;;;2099710;28;910;-61
2022/06/26 14:36:04;;;;;;;;;;;27.90;49.70;;;;;;2099501;28;935;-61
2022/06/26 14:37:04;;;;;;;;;;;27.90;49.80;;;;;;2099680;28;825;-61
2022/06/26 14:38:04;;;;;;;;;;;27.90;49.80;;;;;;2099550;28;928;-61
2022/06/26 14:39:05;;;;;;;;;;;27.90;49.80;;;;;;2099691;28;1023;-60
2022/06/26 14:40:05;;;;;;;;;;;27.90;49.80;;;;;;2115812;28;1513;-61
2022/06/26 14:41:06;;;;;;;;;;;27.90;49.80;;;;;;2115807;28;945;-60
2022/06/26 14:42:06;;;;;;;;;;;27.90;49.80;;;;;;2099624;28;910;-61
2022/06/26 14:43:06;;;;;;;;;;;27.90;49.80;;;;;;2099659;28;912;-61
2022/06/26 14:44:07;;;;;;;;;;;27.90;49.80;;;;;;2099513;28;976;-61
2022/06/26 14:45:07;;;;;;;;;;;27.90;49.80;;;;;;2099505;28;827;-61
2022/06/26 14:46:08;;;;;;;;;;;27.90;49.80;;;;;;2099623;28;1062;-60
2022/06/26 14:47:08;;;;;;;;;;;27.90;49.80;;;;;;2099458;28;1953;-61
2022/06/26 14:48:08;;;;;;;;;;;27.90;49.80;;;;;;2099470;28;842;-61
2022/06/26 14:49:09;;;;;;;;;;;27.80;49.70;;;;;;2099613;28;974;-61
2022/06/26 14:50:12;;;;;;;;;;;27.80;49.70;;;;;;2099440;28;1153;-61
2022/06/26 14:51:12;;;;;;;;;;;27.90;49.70;;;;;;2099613;28;955;-61
2022/06/26 14:52:13;;;;;;;;;;;27.80;49.70;;;;;;2099630;28;766;-61
2022/06/26 14:53:13;;;;;;;;;;;27.90;49.70;;;;;;2099562;28;930;-61
2022/06/26 14:54:14;;;;;;;;;;;27.80;49.80;;;;;;2099643;28;995;-60
2022/06/26 14:55:14;;;;;;;;;;;27.90;49.70;;;;;;2099614;28;825;-61
2022/06/26 14:56:14;;;;;;;;;;;27.80;49.80;;;;;;2099495;28;920;-61
2022/06/26 14:57:15;;;;;;;;;;;27.80;49.70;;;;;;2099435;28;902;-61
2022/06/26 14:58:24;;;;;;;;;;;27.80;49.70;;;;;;2099466;28;956;-61
2022/06/26 14:59:25;;;;;;;;;;;27.80;49.70;;;;;;2099486;28;967;-60
2022/06/26 15:00:25;;;;;;;;;;;27.80;49.70;;;;;;2099359;28;1165;-60
2022/06/26 15:01:25;;;;;;;;;;;27.80;49.70;;;;;;2099467;28;908;-61
2022/06/26 15:02:26;;;;;;;;;;;27.90;49.70;;;;;;2115544;28;1002;-61
2022/06/26 15:03:26;;;;;;;;;;;27.80;49.70;;;;;;2115668;28;800;-61
2022/06/26 15:04:26;;;;;;;;;;;27.80;49.70;;;;;;2099563;28;959;-61
2022/06/26 15:05:27;;;;;;;;;;;27.80;49.70;;;;;;2099407;28;1018;-61
2022/06/26 15:06:27;;;;;;;;;;;27.80;49.60;;;;;;2099551;28;845;-60
2022/06/26 15:07:27;;;;;;;;;;;27.80;49.70;;;;;;2099462;28;1906;-61
2022/06/26 15:08:28;;;;;;;;;;;27.80;49.70;;;;;;2099632;28;742;-61
2022/06/26 15:09:28;;;;;;;;;;;27.80;49.70;;;;;;2099445;28;972;-61
2022/06/26 15:10:28;;;;;;;;;;;27.80;49.70;;;;;;2099816;28;1545;-61
2022/06/26 15:11:29;;;;;;;;;;;27.80;49.60;;;;;;2099408;28;861;-61
2022/06/26 15:12:29;;;;;;;;;;;27.80;49.70;;;;;;2099514;28;967;-60
2022/06/26 15:13:30;;;;;;;;;;;27.80;49.60;;;;;;2099633;28;785;-60
2022/06/26 15:14:30;;;;;;;;;;;27.80;49.60;;;;;;2100427;28;825;-61
2022/06/26 15:15:30;;;;;;;;;;;27.90;49.60;;;;;;2101098;28;944;-60
2022/06/26 15:16:31;;;;;;;;;;;27.90;49.60;;;;;;2100917;28;960;-60
2022/06/26 15:17:31;;;;;;;;;;;27.80;49.60;;;;;;2101102;28;782;-60
2022/06/26 15:18:31;;;;;;;;;;;27.90;49.60;;;;;;2100882;28;924;-61
2022/06/26 15:19:32;;;;;;;;;;;27.90;49.60;;;;;;2100831;28;1019;-60
2022/06/26 15:20:32;;;;;;;;;;;27.80;49.60;;;;;;2100845;28;1165;-60
2022/06/26 15:21:32;;;;;;;;;;;27.80;49.60;;;;;;2100912;28;844;-61
2022/06/26 15:22:34;;;;;;;;;;;27.80;49.60;;;;;;2100893;28;892;-61
2022/06/26 15:23:34;;;;;;;;;;;27.80;49.60;;;;;;2101062;28;848;-61
2022/06/26 15:24:35;;;;;;;;;;;27.80;49.60;;;;;;2100872;28;924;-61
2022/06/26 15:25:35;;;;;;;;;;;27.80;49.50;;;;;;2101121;28;860;-61
2022/06/26 15:26:36;;;;;;;;;;;27.80;49.60;;;;;;2100936;28;869;-61
2022/06/26 15:27:36;;;;;;;;;;;27.90;49.60;;;;;;2100685;28;1955;-60
2022/06/26 15:28:36;;;;;;;;;;;27.90;49.50;;;;;;2100831;28;1015;-61
2022/06/26 15:29:37;;;;;;;;;;;27.80;49.60;;;;;;2100972;28;922;-61
2022/06/26 15:30:37;;;;;;;;;;;27.80;49.60;;;;;;2100826;28;1172;-60
2022/06/26 15:31:38;;;;;;;;;;;27.80;49.50;;;;;;2100830;28;875;-61
2022/06/26 15:32:38;;;;;;;;;;;27.80;49.60;;;;;;2100919;28;802;-60
2022/06/26 15:33:38;;;;;;;;;;;27.80;49.60;;;;;;2100788;28;908;-61
2022/06/26 15:34:39;;;;;;;;;;;27.80;49.60;;;;;;2100949;28;1023;-61
2022/06/26 15:35:39;;;;;;;;;;;27.80;49.50;;;;;;2101272;28;754;-61
2022/06/26 15:36:39;;;;;;;;;;;27.90;49.50;;;;;;2100789;28;785;-61
2022/06/26 15:37:40;;;;;;;;;;;27.80;49.60;;;;;;2100888;28;1019;-61
2022/06/26 15:38:40;;;;;;;;;;;27.80;49.60;;;;;;2100884;28;805;-61
2022/06/26 15:39:41;;;;;;;;;;;27.80;49.60;;;;;;2100766;28;793;-61
2022/06/26 15:40:41;;;;;;;;;;;27.80;49.60;;;;;;2100720;28;1252;-60
2022/06/26 15:41:41;;;;;;;;;;;27.80;49.60;;;;;;2100860;28;785;-60
2022/06/26 15:42:42;;;;;;;;;;;27.80;49.60;;;;;;2100888;28;817;-60
2022/06/26 15:43:42;;;;;;;;;;;27.90;49.50;;;;;;2100770;28;904;-61
2022/06/26 15:44:42;;;;;;;;;;;27.80;49.50;;;;;;2100842;28;817;-61
2022/06/26 15:45:43;;;;;;;;;;;27.80;49.50;;;;;;2100730;28;960;-61
2022/06/26 15:46:43;;;;;;;;;;;27.80;49.50;;;;;;2100885;28;845;-61
2022/06/26 15:47:43;;;;;;;;;;;27.80;49.50;;;;;;2100623;28;1906;-61
2022/06/26 15:48:44;;;;;;;;;;;27.80;49.60;;;;;;2100789;28;1071;-60
2022/06/26 15:49:44;;;;;;;;;;;27.90;49.60;;;;;;2100680;28;824;-62
2022/06/26 15:50:45;;;;;;;;;;;27.80;49.50;;;;;;2100583;28;1156;-61
2022/06/26 15:51:46;;;;;;;;;;;27.80;49.50;;;;;;2100770;28;789;-60
2022/06/26 15:52:46;;;;;;;;;;;27.80;49.50;;;;;;2100840;28;833;-61
2022/06/26 15:53:47;;;;;;;;;;;27.80;49.70;;;;;;2100643;28;908;-61
2022/06/26 15:54:47;;;;;;;;;;;27.90;49.80;;;;;;2100645;28;844;-61
2022/06/26 15:55:47;;;;;;;;;;;27.90;49.70;;;;;;2100740;28;1051;-61
2022/06/26 15:56:48;;;;;;;;;;;27.80;49.60;;;;;;2100852;28;900;-61
2022/06/26 15:57:48;;;;;;;;;;;27.80;49.60;;;;;;2100693;28;1052;-61
2022/06/26 15:58:50;;;;;;;;;;;27.90;49.60;;;;;;2100806;28;953;-61
2022/06/26 15:59:50;;;;;;;;;;;27.90;49.60;;;;;;2100712;28;813;-60
2022/06/26 16:00:50;;;;;;;;;;;27.80;49.50;;;;;;2100518;28;1161;-61
2022/06/26 16:01:51;;;;;;;;;;;27.80;49.50;;;;;;2100594;28;950;-61
2022/06/26 16:02:51;;;;;;;;;;;27.80;49.50;;;;;;2100676;28;885;-61
2022/06/26 16:03:51;;;;;;;;;;;27.80;49.60;;;;;;2100614;28;991;-60
2022/06/26 16:04:52;;;;;;;;;;;27.80;49.60;;;;;;2100679;28;927;-60